Time;durP1;ratioP1;P1;durP2;ratioP2;P2;SDS_P1;SDS_P2;PMS_P1;PMS_P2;Temp;Humidity;BMP_temperature;BMP_pressure;BME280_temperature;BME280_humidity;BME280_pressure;Samples;Min_cycle;Max_cycle;Signal;HPM_P1;HPM_P2
2023/06/10 00:02:16;;;;;;;;;;;;;;;;;;5026994;28;20003;-46
2023/06/10 05:09:33;;;;;;;;;;;;;;;;;;5025555;28;20348;-51
2023/06/10 05:11:59;;;;;;;;;;;;;;;;;;5018691;28;20547;-50
2023/06/10 05:14:25;;;;;;;;;;;;;;;;;;5008398;28;20048;-49
2023/06/10 05:16:51;;;;;;;;;;;;;;;;;;5022015;28;19909;-49
2023/06/10 05:19:17;;;;;;;;;;;;;;;;;;5028141;28;19932;-51
2023/06/10 05:21:43;;;;;;;;;;;;;;;;;;5028378;28;19916;-51
2023/06/10 05:24:09;;;;;;;;;;;;;;;;;;5028504;28;19920;-49
2023/06/10 05:26:37;;;;;;;;;;;;;;;;;;5028299;28;19913;-48
2023/06/10 05:29:03;;;;;;;;;;;;;;;;;;4997120;28;20690;-50
2023/06/10 05:31:29;;;;;;;;;;;;;;;;;;5008817;28;19910;-49
2023/06/10 05:33:54;;;;;;;;;;;;;;;;;;5008581;28;19982;-51
2023/06/10 05:36:20;;;;;;;;;;;;;;;;;;5008623;28;19910;-50
2023/06/10 05:38:46;;;;;;;;;;;;;;;;;;5008457;28;19952;-50
2023/06/10 05:41:12;;;;;;;;;;;;;;;;;;5011552;28;19921;-47
2023/06/10 05:43:38;;;;;;;;;;;;;;;;;;5011618;28;19963;-48
2023/06/10 05:46:04;;;;;;;;;;;;;;;;;;5012088;28;19984;-51
2023/06/10 05:48:30;;;;;;;;;;;;;;;;;;5012114;28;19917;-49
2023/06/10 05:50:56;;;;;;;;;;;;;;;;;;5011697;28;19917;-50
2023/06/10 05:53:22;;;;;;;;;;;;;;;;;;5011926;28;19913;-49
2023/06/10 05:55:49;;;;;;;;;;;;;;;;;;5011770;28;20012;-51
2023/06/10 05:58:15;;;;;;;;;;;;;;;;;;5011576;28;19914;-50
2023/06/10 06:00:41;;;;;;;;;;;;;;;;;;5011855;28;19975;-51
2023/06/10 06:03:08;;;;;;;;;;;;;;;;;;5011800;28;19914;-48
2023/06/10 06:05:35;;;;;;;;;;;;;;;;;;5025218;28;20490;-49
2023/06/10 06:08:01;;;;;;;;;;;;;;;;;;5031652;28;19913;-50
2023/06/10 06:10:27;;;;;;;;;;;;;;;;;;5031507;28;19913;-47
2023/06/10 06:12:53;;;;;;;;;;;;;;;;;;5031254;28;19940;-51
2023/06/10 06:15:19;;;;;;;;;;;;;;;;;;5031447;28;19955;-47
2023/06/10 06:17:45;;;;;;;;;;;;;;;;;;5031362;28;19921;-50
2023/06/10 06:20:11;;;;;;;;;;;;;;;;;;5031420;28;19909;-48
2023/06/10 06:22:37;;;;;;;;;;;;;;;;;;5031166;28;19909;-52
2023/06/10 06:25:02;;;;;;;;;;;;;;;;;;5031425;28;19917;-51
2023/06/10 06:27:28;;;;;;;;;;;;;;;;;;5031143;28;19983;-50
2023/06/10 06:29:54;;;;;;;;;;;;;;;;;;5030917;28;19913;-50
2023/06/10 06:32:22;;;;;;;;;;;;;;;;;;5049167;28;19923;-51
2023/06/10 06:34:53;;;;;;;;;;;;;;;;;;5050912;28;19920;-49
2023/06/10 06:37:20;;;;;;;;;;;;;;;;;;5046890;28;20137;-50
2023/06/10 06:39:46;;;;;;;;;;;;;;;;;;5028895;28;19913;-52
2023/06/10 06:42:12;;;;;;;;;;;;;;;;;;5030194;28;19917;-52
2023/06/10 06:44:38;;;;;;;;;;;;;;;;;;5037515;28;19944;-48
2023/06/10 06:47:04;;;;;;;;;;;;;;;;;;5033682;28;19913;-48
2023/06/10 06:49:30;;;;;;;;;;;;;;;;;;5031016;28;19923;-50
2023/06/10 06:51:56;;;;;;;;;;;;;;;;;;5029397;28;19905;-52
2023/06/10 06:54:22;;;;;;;;;;;;;;;;;;5029197;28;19913;-48
2023/06/10 06:56:48;;;;;;;;;;;;;;;;;;5030638;28;19945;-49
2023/06/10 06:59:14;;;;;;;;;;;;;;;;;;5030003;28;19992;-50
2023/06/10 07:01:40;;;;;;;;;;;;;;;;;;5025807;28;19917;-50
2023/06/10 07:04:06;;;;;;;;;;;;;;;;;;5026994;28;19963;-47
2023/06/10 07:06:32;;;;;;;;;;;;;;;;;;5031260;28;19913;-47
2023/06/10 07:08:58;;;;;;;;;;;;;;;;;;5048399;28;19956;-47
2023/06/10 07:11:25;;;;;;;;;;;;;;;;;;5032200;28;19939;-49
2023/06/10 07:13:50;;;;;;;;;;;;;;;;;;5027268;28;20316;-50
2023/06/10 07:16:16;;;;;;;;;;;;;;;;;;5021658;28;19913;-50
2023/06/10 07:18:42;;;;;;;;;;;;;;;;;;5006990;28;19944;-49
2023/06/10 07:21:08;;;;;;;;;;;;;;;;;;5007248;28;19916;-50
2023/06/10 07:23:34;;;;;;;;;;;;;;;;;;5017829;28;19996;-49
2023/06/10 07:26:00;;;;;;;;;;;;;;;;;;5026395;28;19983;-52
2023/06/10 07:28:26;;;;;;;;;;;;;;;;;;5027222;28;20395;-51
2023/06/10 07:30:52;;;;;;;;;;;;;;;;;;5026722;28;19920;-49
2023/06/10 07:33:18;;;;;;;;;;;;;;;;;;5026513;28;20126;-50
2023/06/10 07:35:44;;;;;;;;;;;;;;;;;;5026633;28;19917;-52
2023/06/10 07:38:10;;;;;;;;;;;;;;;;;;5026416;28;19913;-48
2023/06/10 07:40:36;;;;;;;;;;;;;;;;;;5027112;28;19936;-51
2023/06/10 07:43:03;;;;;;;;;;;;;;;;;;5026732;28;19940;-51
2023/06/10 07:45:30;;;;;;;;;;;;;;;;;;5026532;28;19999;-47
2023/06/10 07:47:56;;;;;;;;;;;;;;;;;;5026239;28;19909;-51
2023/06/10 07:50:23;;;;;;;;;;;;;;;;;;5026245;28;20397;-51
2023/06/10 07:52:50;;;;;;;;;;;;;;;;;;5026406;28;20416;-48
2023/06/10 07:55:16;;;;;;;;;;;;;;;;;;5026618;28;19909;-50
2023/06/10 07:57:43;;;;;;;;;;;;;;;;;;5026027;28;19916;-49
2023/06/10 08:00:09;;;;;;;;;;;;;;;;;;5025053;28;20010;-53
2023/06/10 08:02:35;;;;;;;;;;;;;;;;;;5013870;28;19924;-52
2023/06/10 08:05:01;;;;;;;;;;;;;;;;;;5008276;28;19936;-54
2023/06/10 08:07:27;;;;;;;;;;;;;;;;;;5026035;28;19956;-54
2023/06/10 08:09:54;;;;;;;;;;;;;;;;;;5026141;28;19913;-54
2023/06/10 08:12:20;;;;;;;;;;;;;;;;;;5025678;28;19921;-52
2023/06/10 08:14:46;;;;;;;;;;;;;;;;;;5025924;28;20211;-53
2023/06/10 08:17:12;;;;;;;;;;;;;;;;;;5025982;28;19910;-53
2023/06/10 08:19:38;;;;;;;;;;;;;;;;;;5025833;28;19913;-53
2023/06/10 08:22:04;;;;;;;;;;;;;;;;;;5026640;28;19920;-49
2023/06/10 08:24:30;;;;;;;;;;;;;;;;;;5025482;28;19913;-53
2023/06/10 08:26:57;;;;;;;;;;;;;;;;;;5026212;28;20528;-53
2023/06/10 08:29:23;;;;;;;;;;;;;;;;;;5025822;28;19963;-53
2023/06/10 08:31:49;;;;;;;;;;;;;;;;;;5025455;28;20423;-52
2023/06/10 08:34:15;;;;;;;;;;;;;;;;;;5025832;28;19913;-50
2023/06/10 08:36:41;;;;;;;;;;;;;;;;;;5025614;28;19994;-53
2023/06/10 08:39:07;;;;;;;;;;;;;;;;;;5025979;28;20451;-52
2023/06/10 08:41:34;;;;;;;;;;;;;;;;;;5025878;28;20399;-53
2023/06/10 08:44:00;;;;;;;;;;;;;;;;;;5007400;28;19979;-53
2023/06/10 08:46:26;;;;;;;;;;;;;;;;;;5025534;28;20411;-52
2023/06/10 08:48:52;;;;;;;;;;;;;;;;;;5025429;28;19954;-52
2023/06/10 08:51:18;;;;;;;;;;;;;;;;;;5025582;28;20400;-52
2023/06/10 08:53:45;;;;;;;;;;;;;;;;;;5025398;28;19920;-52
2023/06/10 08:56:11;;;;;;;;;;;;;;;;;;5025457;28;19952;-53
2023/06/10 08:58:41;;;;;;;;;;;;;;;;;;5026038;28;19964;-53
2023/06/10 09:01:07;;;;;;;;;;;;;;;;;;5025506;28;20402;-53
2023/06/10 09:03:34;;;;;;;;;;;;;;;;;;5026067;28;20023;-53
2023/06/10 09:06:01;;;;;;;;;;;;;;;;;;5025638;28;19917;-52
2023/06/10 09:08:26;;;;;;;;;;;;;;;;;;5024132;28;20479;-52
2023/06/10 09:10:52;;;;;;;;;;;;;;;;;;5024791;28;20030;-53
2023/06/10 09:13:18;;;;;;;;;;;;;;;;;;5025090;28;19913;-53
2023/06/10 09:15:45;;;;;;;;;;;;;;;;;;5027835;28;19943;-52
2023/06/10 09:18:11;;;;;;;;;;;;;;;;;;5029276;28;19913;-52
2023/06/10 09:20:37;;;;;;;;;;;;;;;;;;5028885;28;19936;-50
2023/06/10 09:23:03;;;;;;;;;;;;;;;;;;5029637;28;19913;-53
2023/06/10 09:25:30;;;;;;;;;;;;;;;;;;5028994;28;19917;-52
2023/06/10 09:27:56;;;;;;;;;;;;;;;;;;5029079;28;20303;-53
2023/06/10 09:30:22;;;;;;;;;;;;;;;;;;5029140;28;20377;-52
2023/06/10 09:32:48;;;;;;;;;;;;;;;;;;5029521;28;19946;-53
2023/06/10 09:35:14;;;;;;;;;;;;;;;;;;5028676;28;19909;-52
2023/06/10 09:37:40;;;;;;;;;;;;;;;;;;5028734;28;19914;-51
2023/06/10 09:40:06;;;;;;;;;;;;;;;;;;5028700;28;19911;-52
2023/06/10 09:42:32;;;;;;;;;;;;;;;;;;5028616;28;19909;-52
2023/06/10 09:44:58;;;;;;;;;;;;;;;;;;5028704;28;20307;-53
2023/06/10 09:47:24;;;;;;;;;;;;;;;;;;5028673;28;19919;-51
2023/06/10 09:49:53;;;;;;;;;;;;;;;;;;5028960;28;19959;-52
2023/06/10 09:52:19;;;;;;;;;;;;;;;;;;5029174;28;19913;-49
2023/06/10 09:54:45;;;;;;;;;;;;;;;;;;5028588;28;19920;-52
2023/06/10 09:57:11;;;;;;;;;;;;;;;;;;5028226;28;20388;-51
2023/06/10 09:59:37;;;;;;;;;;;;;;;;;;5028314;28;19910;-52
2023/06/10 10:02:04;;;;;;;;;;;;;;;;;;5028594;28;20386;-53
2023/06/10 10:04:30;;;;;;;;;;;;;;;;;;5028296;28;20319;-48
2023/06/10 10:06:56;;;;;;;;;;;;;;;;;;5028347;28;20012;-49
2023/06/10 10:09:21;;;;;;;;;;;;;;;;;;5028342;28;19963;-49
2023/06/10 10:11:48;;;;;;;;;;;;;;;;;;5028379;28;19917;-52
2023/06/10 10:14:14;;;;;;;;;;;;;;;;;;5028282;28;19974;-52
2023/06/10 10:16:40;;;;;;;;;;;;;;;;;;5028029;28;19913;-52
2023/06/10 10:19:06;;;;;;;;;;;;;;;;;;5027919;28;19913;-52
2023/06/10 10:21:32;;;;;;;;;;;;;;;;;;5027922;28;19909;-50
2023/06/10 10:23:58;;;;;;;;;;;;;;;;;;5027849;28;19910;-49
2023/06/10 10:26:25;;;;;;;;;;;;;;;;;;5027568;28;19916;-53
2023/06/10 10:28:51;;;;;;;;;;;;;;;;;;5028111;28;19916;-51
2023/06/10 10:31:18;;;;;;;;;;;;;;;;;;5028573;28;19909;-52
2023/06/10 10:33:44;;;;;;;;;;;;;;;;;;5027818;28;19916;-51
2023/06/10 10:36:10;;;;;;;;;;;;;;;;;;5027667;28;19917;-53
2023/06/10 10:38:36;;;;;;;;;;;;;;;;;;5027687;28;19919;-53
2023/06/10 10:41:03;;;;;;;;;;;;;;;;;;5027417;28;19916;-51
2023/06/10 10:43:28;;;;;;;;;;;;;;;;;;5027744;28;19909;-51
2023/06/10 10:45:54;;;;;;;;;;;;;;;;;;5027752;28;20330;-53
2023/06/10 10:48:21;;;;;;;;;;;;;;;;;;5028346;28;20040;-52
2023/06/10 10:50:47;;;;;;;;;;;;;;;;;;5028015;28;20199;-52
2023/06/10 10:53:14;;;;;;;;;;;;;;;;;;5027539;28;19948;-52
2023/06/10 10:55:40;;;;;;;;;;;;;;;;;;5027140;28;19917;-52
2023/06/10 10:58:06;;;;;;;;;;;;;;;;;;5027159;28;19913;-52
2023/06/10 11:00:33;;;;;;;;;;;;;;;;;;5027266;28;19909;-50
2023/06/10 11:02:59;;;;;;;;;;;;;;;;;;5027735;28;19913;-52
2023/06/10 11:05:26;;;;;;;;;;;;;;;;;;5027585;28;19963;-51
2023/06/10 11:07:51;;;;;;;;;;;;;;;;;;5027314;28;20217;-52
2023/06/10 11:10:17;;;;;;;;;;;;;;;;;;5027425;28;19913;-50
2023/06/10 11:12:43;;;;;;;;;;;;;;;;;;5026917;28;19913;-53
2023/06/10 11:15:09;;;;;;;;;;;;;;;;;;5027433;28;20142;-51
2023/06/10 11:17:35;;;;;;;;;;;;;;;;;;5027032;28;20478;-53
2023/06/10 11:20:01;;;;;;;;;;;;;;;;;;5026862;28;20007;-51
2023/06/10 11:22:27;;;;;;;;;;;;;;;;;;5026976;28;19909;-51
2023/06/10 11:24:54;;;;;;;;;;;;;;;;;;5026558;28;19913;-49
2023/06/10 11:27:20;;;;;;;;;;;;;;;;;;5027437;28;19917;-51
2023/06/10 11:29:46;;;;;;;;;;;;;;;;;;5026699;28;19936;-49
2023/06/10 11:32:12;;;;;;;;;;;;;;;;;;5026489;28;19912;-52
2023/06/10 11:34:38;;;;;;;;;;;;;;;;;;5027251;28;19916;-52
2023/06/10 11:37:05;;;;;;;;;;;;;;;;;;5025947;28;19909;-52
2023/06/10 11:39:31;;;;;;;;;;;;;;;;;;5026177;28;19924;-51
2023/06/10 11:41:57;;;;;;;;;;;;;;;;;;5026591;28;20304;-52
2023/06/10 11:44:23;;;;;;;;;;;;;;;;;;5025928;28;19921;-50
2023/06/10 11:46:49;;;;;;;;;;;;;;;;;;5027058;28;19935;-52
2023/06/10 11:49:15;;;;;;;;;;;;;;;;;;5026407;28;19913;-51
2023/06/10 11:51:48;;;;;;;;;;;;;;;;;;5026590;28;19959;-53
2023/06/10 11:54:15;;;;;;;;;;;;;;;;;;5026330;28;19913;-53
2023/06/10 11:56:41;;;;;;;;;;;;;;;;;;5026172;28;19913;-54
2023/06/10 11:59:08;;;;;;;;;;;;;;;;;;5026071;28;19963;-52
2023/06/10 12:01:35;;;;;;;;;;;;;;;;;;5025191;28;20312;-52
2023/06/10 12:04:01;;;;;;;;;;;;;;;;;;5026151;28;20319;-52
2023/06/10 12:06:27;;;;;;;;;;;;;;;;;;5026299;28;20300;-51
2023/06/10 12:08:53;;;;;;;;;;;;;;;;;;5026020;28;19909;-52
2023/06/10 12:11:20;;;;;;;;;;;;;;;;;;5026836;28;20008;-52
2023/06/10 12:13:48;;;;;;;;;;;;;;;;;;5026195;28;19909;-50
2023/06/10 12:16:14;;;;;;;;;;;;;;;;;;5026017;28;19999;-51
2023/06/10 12:18:41;;;;;;;;;;;;;;;;;;5025944;28;19913;-51
2023/06/10 12:21:07;;;;;;;;;;;;;;;;;;5025984;28;20415;-52
2023/06/10 12:23:33;;;;;;;;;;;;;;;;;;5025930;28;19952;-52
2023/06/10 12:25:59;;;;;;;;;;;;;;;;;;5025691;28;20028;-52
2023/06/10 12:28:25;;;;;;;;;;;;;;;;;;5026471;28;19999;-51
2023/06/10 12:30:51;;;;;;;;;;;;;;;;;;5026771;28;19975;-52
2023/06/10 12:33:17;;;;;;;;;;;;;;;;;;5026550;28;20004;-53
2023/06/10 12:35:44;;;;;;;;;;;;;;;;;;5026217;28;20008;-52
2023/06/10 12:38:12;;;;;;;;;;;;;;;;;;5025968;28;19967;-53
2023/06/10 12:40:40;;;;;;;;;;;;;;;;;;5025615;28;19913;-50
2023/06/10 12:43:06;;;;;;;;;;;;;;;;;;5024707;28;19920;-51
2023/06/10 12:45:32;;;;;;;;;;;;;;;;;;5025780;28;19917;-50
2023/06/10 12:47:58;;;;;;;;;;;;;;;;;;5026040;28;19913;-48
2023/06/10 12:50:23;;;;;;;;;;;;;;;;;;5029674;28;19909;-48
2023/06/10 12:52:51;;;;;;;;;;;;;;;;;;5030453;28;20381;-51
2023/06/10 12:55:17;;;;;;;;;;;;;;;;;;5029554;28;19909;-49
2023/06/10 12:57:43;;;;;;;;;;;;;;;;;;5030367;28;19913;-51
2023/06/10 13:00:13;;;;;;;;;;;;;;;;;;5031442;28;19913;-51
2023/06/10 13:02:39;;;;;;;;;;;;;;;;;;5031328;28;19909;-51
2023/06/10 13:05:05;;;;;;;;;;;;;;;;;;5030581;28;19913;-51
2023/06/10 13:07:32;;;;;;;;;;;;;;;;;;5024849;28;20078;-52
2023/06/10 13:09:58;;;;;;;;;;;;;;;;;;5029645;28;19916;-51
2023/06/10 13:12:25;;;;;;;;;;;;;;;;;;5029228;28;20316;-52
2023/06/10 13:14:53;;;;;;;;;;;;;;;;;;5030257;28;19916;-50
2023/06/10 13:17:19;;;;;;;;;;;;;;;;;;5030051;28;19952;-49
2023/06/10 13:19:46;;;;;;;;;;;;;;;;;;5032752;28;19913;-51
2023/06/10 13:22:11;;;;;;;;;;;;;;;;;;5029814;28;20375;-51
2023/06/10 13:24:38;;;;;;;;;;;;;;;;;;5029245;28;19923;-48
2023/06/10 13:27:05;;;;;;;;;;;;;;;;;;5029391;28;20221;-49
2023/06/10 13:29:31;;;;;;;;;;;;;;;;;;5029304;28;19945;-51
2023/06/10 13:31:57;;;;;;;;;;;;;;;;;;5027527;28;20415;-52
2023/06/10 13:34:23;;;;;;;;;;;;;;;;;;5029787;28;19909;-47
2023/06/10 13:36:49;;;;;;;;;;;;;;;;;;5029153;28;19967;-48
2023/06/10 13:39:15;;;;;;;;;;;;;;;;;;5029336;28;19924;-52
2023/06/10 13:41:41;;;;;;;;;;;;;;;;;;5030610;28;19921;-51
2023/06/10 13:44:07;;;;;;;;;;;;;;;;;;5030560;28;19920;-51
2023/06/10 13:46:33;;;;;;;;;;;;;;;;;;5030259;28;19913;-50
2023/06/10 13:48:59;;;;;;;;;;;;;;;;;;5030095;28;19963;-50
2023/06/10 13:51:25;;;;;;;;;;;;;;;;;;5030001;28;19913;-50
2023/06/10 13:53:51;;;;;;;;;;;;;;;;;;5030272;28;19935;-51
2023/06/10 13:56:17;;;;;;;;;;;;;;;;;;5029911;28;20293;-51
2023/06/10 13:58:44;;;;;;;;;;;;;;;;;;5029757;28;19920;-51
2023/06/10 14:01:10;;;;;;;;;;;;;;;;;;5027286;28;20011;-51
2023/06/10 14:03:36;;;;;;;;;;;;;;;;;;5011355;28;20553;-50
2023/06/10 14:06:02;;;;;;;;;;;;;;;;;;5028895;28;19963;-49
2023/06/10 14:08:28;;;;;;;;;;;;;;;;;;5029661;28;19976;-49
2023/06/10 14:10:54;;;;;;;;;;;;;;;;;;5029895;28;19917;-52
2023/06/10 14:13:20;;;;;;;;;;;;;;;;;;5030584;28;19944;-52
2023/06/10 14:15:46;;;;;;;;;;;;;;;;;;5028524;28;19994;-49
2023/06/10 14:18:12;;;;;;;;;;;;;;;;;;5009887;28;19910;-51
2023/06/10 14:20:38;;;;;;;;;;;;;;;;;;5028861;28;20023;-49
2023/06/10 14:23:04;;;;;;;;;;;;;;;;;;5028676;28;19909;-51
2023/06/10 14:25:30;;;;;;;;;;;;;;;;;;5010588;28;20006;-52
2023/06/10 14:27:57;;;;;;;;;;;;;;;;;;5009817;28;19941;-50
2023/06/10 14:30:23;;;;;;;;;;;;;;;;;;5010174;28;20324;-52
2023/06/10 14:32:49;;;;;;;;;;;;;;;;;;5011738;28;19921;-49
2023/06/10 14:35:15;;;;;;;;;;;;;;;;;;5020300;28;19913;-51
2023/06/10 14:37:41;;;;;;;;;;;;;;;;;;5009791;28;19910;-53
2023/06/10 14:40:07;;;;;;;;;;;;;;;;;;5009699;28;20354;-52
2023/06/10 14:42:33;;;;;;;;;;;;;;;;;;5009849;28;19910;-51
2023/06/10 14:45:00;;;;;;;;;;;;;;;;;;5009449;28;19917;-53
2023/06/10 14:47:26;;;;;;;;;;;;;;;;;;5009740;28;20498;-51
2023/06/10 14:49:52;;;;;;;;;;;;;;;;;;5009887;28;20431;-50
2023/06/10 14:52:18;;;;;;;;;;;;;;;;;;5026830;28;20012;-49
2023/06/10 14:54:44;;;;;;;;;;;;;;;;;;5028967;28;19913;-52
2023/06/10 14:57:11;;;;;;;;;;;;;;;;;;5029255;28;19921;-51
2023/06/10 14:59:37;;;;;;;;;;;;;;;;;;5029164;28;20342;-50
2023/06/10 15:02:03;;;;;;;;;;;;;;;;;;5028993;28;19909;-52
2023/06/10 15:04:29;;;;;;;;;;;;;;;;;;5028135;28;19953;-53
2023/06/10 15:06:55;;;;;;;;;;;;;;;;;;5029955;28;19964;-52
2023/06/10 15:09:21;;;;;;;;;;;;;;;;;;5029469;28;19917;-52
2023/06/10 15:11:47;;;;;;;;;;;;;;;;;;5028124;28;19921;-54
2023/06/10 15:14:13;;;;;;;;;;;;;;;;;;5028124;28;19916;-52
2023/06/10 15:16:39;;;;;;;;;;;;;;;;;;5028884;28;20269;-52
2023/06/10 15:19:08;;;;;;;;;;;;;;;;;;5028680;28;19909;-54
2023/06/10 15:21:33;;;;;;;;;;;;;;;;;;5028417;28;19913;-53
2023/06/10 15:23:59;;;;;;;;;;;;;;;;;;5021843;28;19924;-53
2023/06/10 15:26:26;;;;;;;;;;;;;;;;;;5028640;28;19920;-52
2023/06/10 15:28:52;;;;;;;;;;;;;;;;;;5029098;28;19913;-52
2023/06/10 15:31:18;;;;;;;;;;;;;;;;;;5027872;28;19924;-53
2023/06/10 15:33:44;;;;;;;;;;;;;;;;;;5028567;28;19940;-53
2023/06/10 15:36:10;;;;;;;;;;;;;;;;;;5028350;28;19917;-54
2023/06/10 15:38:36;;;;;;;;;;;;;;;;;;5028208;28;19913;-53
2023/06/10 15:41:02;;;;;;;;;;;;;;;;;;5028388;28;19983;-50
2023/06/10 15:43:28;;;;;;;;;;;;;;;;;;5028269;28;19917;-50
2023/06/10 15:45:54;;;;;;;;;;;;;;;;;;5028983;28;19963;-49
2023/06/10 15:48:20;;;;;;;;;;;;;;;;;;5028314;28;19962;-51
2023/06/10 15:50:46;;;;;;;;;;;;;;;;;;5028396;28;20360;-51
2023/06/10 15:53:12;;;;;;;;;;;;;;;;;;5027919;28;19918;-49
2023/06/10 15:55:38;;;;;;;;;;;;;;;;;;5028062;28;19913;-47
2023/06/10 15:58:04;;;;;;;;;;;;;;;;;;5027947;28;19913;-50
2023/06/10 16:00:30;;;;;;;;;;;;;;;;;;5027818;28;20798;-50
2023/06/10 16:02:56;;;;;;;;;;;;;;;;;;5026634;28;19917;-49
2023/06/10 16:05:22;;;;;;;;;;;;;;;;;;5028371;28;19959;-50
2023/06/10 16:07:48;;;;;;;;;;;;;;;;;;5027825;28;19913;-48
2023/06/10 16:10:14;;;;;;;;;;;;;;;;;;5027727;28;19964;-50
2023/06/10 16:12:41;;;;;;;;;;;;;;;;;;5026855;28;20039;-50
2023/06/10 16:15:07;;;;;;;;;;;;;;;;;;5027713;28;19999;-50
2023/06/10 16:17:33;;;;;;;;;;;;;;;;;;5027721;28;20051;-49
2023/06/10 16:20:01;;;;;;;;;;;;;;;;;;5026585;28;20220;-50
2023/06/10 16:22:27;;;;;;;;;;;;;;;;;;5027475;28;19964;-51
2023/06/10 16:24:53;;;;;;;;;;;;;;;;;;5027201;28;19929;-51
2023/06/10 16:27:19;;;;;;;;;;;;;;;;;;5027468;28;19979;-50
2023/06/10 16:29:45;;;;;;;;;;;;;;;;;;5027424;28;19913;-51
2023/06/10 16:32:11;;;;;;;;;;;;;;;;;;5017837;28;19917;-50
2023/06/10 16:34:36;;;;;;;;;;;;;;;;;;5007760;28;19913;-48
2023/06/10 16:37:02;;;;;;;;;;;;;;;;;;5007704;28;19909;-51
2023/06/10 16:39:28;;;;;;;;;;;;;;;;;;5007650;28;20029;-51
2023/06/10 16:41:54;;;;;;;;;;;;;;;;;;5010204;28;19913;-49
2023/06/10 16:44:20;;;;;;;;;;;;;;;;;;5026845;28;19917;-50
2023/06/10 16:46:46;;;;;;;;;;;;;;;;;;5027265;28;19917;-50
2023/06/10 16:49:12;;;;;;;;;;;;;;;;;;5021460;28;20476;-48
2023/06/10 16:51:38;;;;;;;;;;;;;;;;;;5007126;28;19916;-48
2023/06/10 16:54:04;;;;;;;;;;;;;;;;;;5007255;28;19928;-51
2023/06/10 16:56:30;;;;;;;;;;;;;;;;;;5007307;28;19917;-51
2023/06/10 16:58:56;;;;;;;;;;;;;;;;;;5007127;28;19910;-49
2023/06/10 17:01:22;;;;;;;;;;;;;;;;;;5013400;28;19932;-50
2023/06/10 17:03:48;;;;;;;;;;;;;;;;;;5027070;28;19917;-51
2023/06/10 17:06:14;;;;;;;;;;;;;;;;;;5027015;28;19960;-50
2023/06/10 17:08:40;;;;;;;;;;;;;;;;;;5027071;28;19913;-51
2023/06/10 17:11:05;;;;;;;;;;;;;;;;;;5026937;28;19983;-51
2023/06/10 17:13:31;;;;;;;;;;;;;;;;;;5026891;28;19913;-48
2023/06/10 17:15:57;;;;;;;;;;;;;;;;;;5026772;28;19915;-52
2023/06/10 17:18:23;;;;;;;;;;;;;;;;;;5036008;28;19912;-49
2023/06/10 17:20:50;;;;;;;;;;;;;;;;;;5028961;28;19917;-51
2023/06/10 17:23:16;;;;;;;;;;;;;;;;;;5026983;28;19921;-50
2023/06/10 17:25:42;;;;;;;;;;;;;;;;;;5024431;28;20188;-50
2023/06/10 17:28:08;;;;;;;;;;;;;;;;;;5025289;28;19913;-49
2023/06/10 17:30:34;;;;;;;;;;;;;;;;;;5025217;28;19909;-50
2023/06/10 17:33:01;;;;;;;;;;;;;;;;;;5025109;28;19975;-51
2023/06/10 17:35:27;;;;;;;;;;;;;;;;;;5026206;28;20264;-48
2023/06/10 17:37:53;;;;;;;;;;;;;;;;;;5029395;28;20596;-51
2023/06/10 17:40:19;;;;;;;;;;;;;;;;;;5030847;28;20384;-50
2023/06/10 17:42:46;;;;;;;;;;;;;;;;;;5030251;28;20362;-48
2023/06/10 17:45:11;;;;;;;;;;;;;;;;;;5029707;28;20383;-51
2023/06/10 17:47:38;;;;;;;;;;;;;;;;;;5030681;28;20000;-50
2023/06/10 17:50:04;;;;;;;;;;;;;;;;;;5029951;28;19913;-50
2023/06/10 17:52:30;;;;;;;;;;;;;;;;;;5024236;28;19929;-51
2023/06/10 17:54:56;;;;;;;;;;;;;;;;;;5010338;28;19910;-50
2023/06/10 17:57:22;;;;;;;;;;;;;;;;;;5018254;28;20050;-51
2023/06/10 17:59:48;;;;;;;;;;;;;;;;;;5029913;28;20485;-50
2023/06/10 18:02:14;;;;;;;;;;;;;;;;;;5030268;28;19913;-51
2023/06/10 18:04:41;;;;;;;;;;;;;;;;;;5029882;28;19917;-50
2023/06/10 18:07:07;;;;;;;;;;;;;;;;;;5028537;28;19913;-50
2023/06/10 18:09:33;;;;;;;;;;;;;;;;;;5028321;28;19921;-49
2023/06/10 18:11:59;;;;;;;;;;;;;;;;;;5029204;28;19944;-51
2023/06/10 18:14:25;;;;;;;;;;;;;;;;;;5028334;28;19909;-49
2023/06/10 18:16:51;;;;;;;;;;;;;;;;;;5010335;28;19913;-48
2023/06/10 18:19:17;;;;;;;;;;;;;;;;;;5026097;28;19917;-48
2023/06/10 18:21:43;;;;;;;;;;;;;;;;;;5029255;28;19916;-51
2023/06/10 18:24:09;;;;;;;;;;;;;;;;;;5028775;28;19917;-49
2023/06/10 18:26:35;;;;;;;;;;;;;;;;;;5027757;28;19925;-52
2023/06/10 18:29:01;;;;;;;;;;;;;;;;;;5028884;28;19913;-49
2023/06/10 18:31:27;;;;;;;;;;;;;;;;;;5029082;28;19967;-50
2023/06/10 18:33:53;;;;;;;;;;;;;;;;;;5027806;28;19982;-51
2023/06/10 18:36:19;;;;;;;;;;;;;;;;;;5028533;28;19952;-52
2023/06/10 18:38:45;;;;;;;;;;;;;;;;;;5010713;28;19963;-50
2023/06/10 18:41:12;;;;;;;;;;;;;;;;;;5028263;28;19909;-51
2023/06/10 18:43:38;;;;;;;;;;;;;;;;;;5028826;28;19913;-49
2023/06/10 18:46:04;;;;;;;;;;;;;;;;;;5029150;28;19920;-50
2023/06/10 18:48:31;;;;;;;;;;;;;;;;;;5029178;28;19913;-49
2023/06/10 18:50:57;;;;;;;;;;;;;;;;;;5028654;28;19923;-51
2023/06/10 18:53:23;;;;;;;;;;;;;;;;;;5029827;28;20354;-50
2023/06/10 18:55:49;;;;;;;;;;;;;;;;;;5029013;28;19913;-52
2023/06/10 18:58:15;;;;;;;;;;;;;;;;;;5028710;28;19917;-49
2023/06/10 19:00:41;;;;;;;;;;;;;;;;;;5029060;28;19952;-50
2023/06/10 19:03:07;;;;;;;;;;;;;;;;;;5028964;28;19905;-48
2023/06/10 19:05:32;;;;;;;;;;;;;;;;;;5027287;28;19921;-50
2023/06/10 19:07:58;;;;;;;;;;;;;;;;;;5029104;28;19998;-50
2023/06/10 19:10:25;;;;;;;;;;;;;;;;;;5028920;28;19924;-47
2023/06/10 19:12:51;;;;;;;;;;;;;;;;;;5029598;28;19937;-48
2023/06/10 19:15:16;;;;;;;;;;;;;;;;;;5028578;28;20446;-49
2023/06/10 19:17:42;;;;;;;;;;;;;;;;;;5028729;28;19913;-51
2023/06/10 19:20:09;;;;;;;;;;;;;;;;;;5028234;28;19916;-51
2023/06/10 19:22:35;;;;;;;;;;;;;;;;;;5028327;28;20311;-51
2023/06/10 19:25:01;;;;;;;;;;;;;;;;;;5021429;28;20324;-51
2023/06/10 19:27:27;;;;;;;;;;;;;;;;;;5008795;28;19916;-49
2023/06/10 19:29:53;;;;;;;;;;;;;;;;;;5009360;28;19996;-51
2023/06/10 19:32:18;;;;;;;;;;;;;;;;;;5008624;28;20024;-51
2023/06/10 19:34:44;;;;;;;;;;;;;;;;;;5008560;28;19981;-51
2023/06/10 19:37:10;;;;;;;;;;;;;;;;;;5008393;28;19910;-51
2023/06/10 19:39:36;;;;;;;;;;;;;;;;;;5009300;28;19936;-48
2023/06/10 19:42:02;;;;;;;;;;;;;;;;;;5008441;28;19913;-51
2023/06/10 19:44:28;;;;;;;;;;;;;;;;;;5013348;28;19957;-51
2023/06/10 19:46:54;;;;;;;;;;;;;;;;;;5028486;28;19978;-51
2023/06/10 19:49:20;;;;;;;;;;;;;;;;;;5028722;28;19913;-48
2023/06/10 19:51:48;;;;;;;;;;;;;;;;;;5027775;28;19911;-50
2023/06/10 19:54:14;;;;;;;;;;;;;;;;;;5028044;28;19917;-51
2023/06/10 19:56:40;;;;;;;;;;;;;;;;;;5026192;28;20397;-51
2023/06/10 19:59:06;;;;;;;;;;;;;;;;;;5025718;28;19920;-51
2023/06/10 20:01:32;;;;;;;;;;;;;;;;;;5026849;28;19915;-50
2023/06/10 20:03:58;;;;;;;;;;;;;;;;;;5027962;28;19917;-49
2023/06/10 20:06:24;;;;;;;;;;;;;;;;;;5027553;28;19944;-48
2023/06/10 20:08:50;;;;;;;;;;;;;;;;;;5010534;28;20308;-50
2023/06/10 20:11:16;;;;;;;;;;;;;;;;;;5027784;28;19921;-51
2023/06/10 20:13:42;;;;;;;;;;;;;;;;;;5027700;28;19909;-46
2023/06/10 20:16:08;;;;;;;;;;;;;;;;;;5023543;28;19971;-50
2023/06/10 20:18:34;;;;;;;;;;;;;;;;;;5029690;28;19913;-50
2023/06/10 20:21:00;;;;;;;;;;;;;;;;;;5026410;28;20015;-46
2023/06/10 20:23:26;;;;;;;;;;;;;;;;;;5026354;28;19917;-51
2023/06/10 20:25:52;;;;;;;;;;;;;;;;;;5024455;28;20292;-48
2023/06/10 20:28:18;;;;;;;;;;;;;;;;;;5024884;28;19917;-50
2023/06/10 20:30:43;;;;;;;;;;;;;;;;;;5025439;28;20002;-49
2023/06/10 20:33:12;;;;;;;;;;;;;;;;;;5024795;28;19921;-48
2023/06/10 20:35:38;;;;;;;;;;;;;;;;;;5024852;28;19952;-48
2023/06/10 20:38:04;;;;;;;;;;;;;;;;;;5016788;28;20476;-46
2023/06/10 20:40:30;;;;;;;;;;;;;;;;;;5028428;28;19919;-48
2023/06/10 20:42:56;;;;;;;;;;;;;;;;;;5024411;28;19913;-47
2023/06/10 20:45:22;;;;;;;;;;;;;;;;;;5025586;28;19943;-50
2023/06/10 20:47:48;;;;;;;;;;;;;;;;;;5024366;28;20427;-50
2023/06/10 20:50:15;;;;;;;;;;;;;;;;;;5023808;28;19917;-50
2023/06/10 20:52:40;;;;;;;;;;;;;;;;;;5024702;28;19913;-49
2023/06/10 20:55:06;;;;;;;;;;;;;;;;;;5006309;28;20265;-50
2023/06/10 20:57:32;;;;;;;;;;;;;;;;;;5024821;28;19964;-50
2023/06/10 20:59:59;;;;;;;;;;;;;;;;;;5024963;28;19909;-49
2023/06/10 21:02:25;;;;;;;;;;;;;;;;;;5006970;28;19920;-47
2023/06/10 21:04:54;;;;;;;;;;;;;;;;;;5023186;28;20359;-47
2023/06/10 21:07:21;;;;;;;;;;;;;;;;;;5024885;28;20411;-49
2023/06/10 21:09:46;;;;;;;;;;;;;;;;;;5005948;28;21152;-50
2023/06/10 21:12:13;;;;;;;;;;;;;;;;;;5027352;28;20295;-50
2023/06/10 21:14:39;;;;;;;;;;;;;;;;;;5028416;28;19972;-47
2023/06/10 21:17:05;;;;;;;;;;;;;;;;;;5028230;28;19960;-47
2023/06/10 21:19:31;;;;;;;;;;;;;;;;;;5028049;28;19913;-51
2023/06/10 21:21:57;;;;;;;;;;;;;;;;;;5028548;28;19917;-47
2023/06/10 21:24:24;;;;;;;;;;;;;;;;;;5010224;28;19966;-50
2023/06/10 21:26:52;;;;;;;;;;;;;;;;;;5028253;28;20451;-50
2023/06/10 21:29:19;;;;;;;;;;;;;;;;;;5028055;28;19909;-50
2023/06/10 21:31:44;;;;;;;;;;;;;;;;;;5021008;28;19920;-47
2023/06/10 21:34:10;;;;;;;;;;;;;;;;;;5007975;28;19992;-50
2023/06/10 21:36:36;;;;;;;;;;;;;;;;;;5008638;28;19913;-49
2023/06/10 21:39:03;;;;;;;;;;;;;;;;;;5006635;28;19910;-47
2023/06/10 21:41:29;;;;;;;;;;;;;;;;;;5009438;28;20365;-51
2023/06/10 21:43:55;;;;;;;;;;;;;;;;;;5016097;28;19909;-50